createdAt,value
2023-01-07T00:01:41.731Z,4.75
2023-01-07T00:04:12.779Z,4.10
2023-01-07T00:06:41.834Z,4.28
2023-01-07T00:09:16.350Z,5.20
2023-01-07T00:11:44.851Z,5.43
2023-01-07T00:14:14.315Z,4.78
2023-01-07T00:16:42.480Z,4.45
2023-01-07T00:19:13.825Z,4.30
2023-01-07T00:21:41.792Z,5.20
2023-01-07T00:24:10.921Z,6.60
2023-01-07T00:26:39.344Z,6.13
2023-01-07T00:29:07.637Z,6.40
2023-01-07T00:31:37.634Z,6.47
2023-01-07T00:34:05.324Z,6.18
2023-01-07T00:36:39.728Z,5.45
2023-01-07T00:39:12.812Z,6.55
2023-01-07T00:41:40.996Z,6.07
2023-01-07T00:44:08.790Z,6.68
2023-01-07T00:46:36.398Z,6.22
2023-01-07T00:49:03.911Z,7.35
2023-01-07T00:51:31.433Z,5.63
2023-01-07T00:53:58.963Z,5.25
2023-01-07T00:56:26.590Z,4.30
2023-01-07T00:58:53.994Z,3.58
2023-01-07T01:01:21.850Z,4.75
2023-01-07T01:03:49.390Z,4.75
2023-01-07T01:06:17.046Z,5.15
2023-01-07T01:08:46.026Z,5.90
2023-01-07T01:11:15.504Z,5.72
2023-01-07T01:13:44.426Z,6.05
2023-01-07T01:16:15.439Z,5.38
2023-01-07T01:18:43.840Z,5.55
2023-01-07T01:21:13.847Z,4.72
2023-01-07T01:23:42.659Z,5.90
2023-01-07T01:26:13.463Z,5.30
2023-01-07T01:28:41.793Z,5.60
2023-01-07T01:31:10.083Z,6.20
2023-01-07T01:33:53.035Z,6.55
2023-01-07T01:36:20.629Z,6.00
2023-01-07T01:38:48.127Z,5.30
2023-01-07T01:41:18.685Z,6.35
2023-01-07T01:43:48.391Z,6.03
2023-01-07T01:46:22.159Z,5.57
2023-01-07T01:48:56.808Z,6.10
2023-01-07T01:51:28.895Z,5.50
2023-01-07T01:53:56.765Z,5.30
2023-01-07T01:56:30.872Z,5.90
2023-01-07T01:59:04.560Z,5.95
2023-01-07T02:01:35.898Z,6.38
2023-01-07T02:04:16.889Z,6.65
2023-01-07T02:06:55.582Z,5.95
2023-01-07T02:09:24.602Z,6.50
2023-01-07T02:11:58.627Z,5.85
2023-01-07T02:14:59.028Z,6.00
2023-01-07T02:17:50.974Z,5.63
2023-01-07T02:20:35.856Z,4.63
2023-01-07T02:23:36.289Z,6.38
2023-01-07T02:26:25.000Z,6.35
2023-01-07T02:29:25.489Z,5.40
2023-01-07T02:32:11.143Z,6.88
2023-01-07T02:34:55.172Z,7.18
2023-01-07T02:37:52.620Z,6.25
2023-01-07T02:40:36.108Z,7.40
2023-01-07T02:43:12.317Z,6.65
2023-01-07T02:45:56.800Z,6.32
2023-01-07T02:48:25.874Z,7.40
2023-01-07T02:50:53.380Z,7.05
2023-01-07T02:53:21.923Z,7.78
2023-01-07T02:56:16.319Z,6.82
2023-01-07T02:59:31.910Z,6.18
2023-01-07T03:02:02.790Z,7.28
2023-01-07T03:04:40.336Z,6.75
2023-01-07T03:07:44.872Z,6.50
2023-01-07T03:10:47.688Z,7.47
2023-01-07T03:13:23.802Z,6.75
2023-01-07T03:16:08.832Z,6.53
2023-01-07T03:18:41.055Z,6.65
2023-01-07T03:21:14.911Z,5.95
2023-01-07T03:23:49.181Z,5.72
2023-01-07T03:26:22.371Z,6.15
2023-01-07T03:28:52.676Z,6.00
2023-01-07T03:31:22.378Z,7.97
2023-01-07T03:34:08.327Z,6.97
2023-01-07T03:36:45.716Z,7.07
2023-01-07T03:39:15.331Z,6.50
2023-01-07T03:42:01.776Z,7.55
2023-01-07T03:44:29.395Z,7.20
2023-01-07T03:46:57.516Z,6.97
2023-01-07T03:49:25.572Z,8.00
2023-01-07T03:51:54.713Z,6.60
2023-01-07T03:54:23.971Z,7.22
2023-01-07T03:56:51.755Z,6.63
2023-01-07T03:59:19.330Z,7.28
2023-01-07T04:01:48.354Z,8.88
2023-01-07T04:04:16.743Z,8.13
2023-01-07T04:06:44.533Z,8.10
2023-01-07T04:09:15.102Z,8.57
2023-01-07T04:11:43.749Z,7.00
2023-01-07T04:14:12.107Z,9.05
2023-01-07T04:16:39.752Z,7.47
2023-01-07T04:19:08.399Z,8.00
2023-01-07T04:21:36.062Z,7.80
2023-01-07T04:24:05.649Z,7.60
2023-01-07T04:26:33.948Z,6.68
2023-01-07T04:29:01.723Z,6.45
2023-01-07T04:31:29.544Z,6.90
2023-01-07T04:33:57.148Z,7.80
2023-01-07T04:36:25.509Z,6.90
2023-01-07T04:38:53.452Z,7.50
2023-01-07T04:41:21.461Z,6.47
2023-01-07T04:43:49.088Z,7.05
2023-01-07T04:46:16.676Z,7.10
2023-01-07T04:48:44.363Z,5.72
2023-01-07T04:51:11.966Z,6.28
2023-01-07T04:53:39.786Z,5.80
2023-01-07T04:56:08.452Z,6.10
2023-01-07T04:58:35.912Z,6.20
2023-01-07T05:01:04.417Z,5.97
2023-01-07T05:03:36.757Z,5.88
2023-01-07T05:06:05.927Z,6.85
2023-01-07T05:08:34.305Z,5.57
2023-01-07T05:11:03.972Z,5.88
2023-01-07T05:13:32.557Z,6.47
2023-01-07T05:16:01.902Z,5.18
2023-01-07T05:18:30.641Z,5.20
2023-01-07T05:20:59.115Z,4.93
2023-01-07T05:23:26.625Z,4.70
2023-01-07T05:25:54.287Z,5.32
2023-01-07T05:28:21.788Z,4.43
2023-01-07T05:30:49.481Z,4.10
2023-01-07T05:33:16.974Z,4.57
2023-01-07T05:35:48.623Z,5.63
2023-01-07T05:38:17.457Z,4.88
2023-01-07T05:40:49.865Z,4.22
2023-01-07T05:43:21.610Z,4.20
2023-01-07T05:45:49.461Z,4.07
2023-01-07T05:48:17.014Z,5.03
2023-01-07T05:50:44.733Z,5.10
2023-01-07T05:53:12.214Z,3.90
2023-01-07T05:55:40.101Z,4.63
2023-01-07T05:58:08.193Z,6.15
2023-01-07T06:00:36.843Z,4.65
2023-01-07T06:03:05.186Z,4.68
2023-01-07T06:05:33.080Z,3.58
2023-01-07T06:08:00.545Z,4.18
2023-01-07T06:10:28.092Z,3.47
2023-01-07T06:12:55.539Z,3.78
2023-01-07T06:15:23.141Z,3.55
2023-01-07T06:17:50.667Z,3.97
2023-01-07T06:20:18.322Z,3.47
2023-01-07T06:22:45.797Z,4.35
2023-01-07T06:25:13.847Z,4.40
2023-01-07T06:27:41.425Z,3.55
2023-01-07T06:30:11.189Z,3.53
2023-01-07T06:32:44.617Z,3.20
2023-01-07T06:35:12.739Z,3.40
2023-01-07T06:37:41.231Z,3.67
2023-01-07T06:40:09.496Z,3.85
2023-01-07T06:42:37.047Z,3.47
2023-01-07T06:45:05.093Z,4.00
2023-01-07T06:47:32.646Z,3.63
2023-01-07T06:50:00.414Z,3.20
2023-01-07T06:52:27.883Z,3.35
2023-01-07T06:54:55.540Z,4.00
2023-01-07T06:57:23.096Z,3.13
2023-01-07T06:59:50.686Z,2.90
2023-01-07T07:02:21.438Z,3.78
2023-01-07T07:04:49.385Z,3.95
2023-01-07T07:07:17.354Z,3.35
2023-01-07T07:09:45.424Z,3.92
2023-01-07T07:12:13.360Z,3.55
2023-01-07T07:14:40.909Z,2.67
2023-01-07T07:17:08.409Z,3.70
2023-01-07T07:19:35.968Z,2.80
2023-01-07T07:22:04.775Z,2.75
2023-01-07T07:24:32.385Z,3.10
2023-01-07T07:27:00.293Z,2.70
2023-01-07T07:29:27.807Z,2.97
2023-01-07T07:31:55.247Z,3.40
2023-01-07T07:34:22.819Z,2.40
2023-01-07T07:36:50.309Z,3.50
2023-01-07T07:39:17.863Z,2.50
2023-01-07T07:41:45.534Z,2.58
2023-01-07T07:44:15.734Z,3.15
2023-01-07T07:46:43.250Z,2.58
2023-01-07T07:49:13.607Z,2.80
2023-01-07T07:51:41.175Z,2.80
2023-01-07T07:54:08.726Z,2.55
2023-01-07T07:56:36.355Z,2.03
2023-01-07T07:59:05.227Z,2.63
2023-01-07T08:01:32.863Z,2.00
2023-01-07T08:04:01.116Z,1.85
2023-01-07T08:06:28.675Z,2.65
2023-01-07T08:08:56.241Z,2.40
2023-01-07T08:11:23.874Z,2.38
2023-01-07T08:13:51.388Z,2.03
2023-01-07T08:16:18.982Z,2.03
2023-01-07T08:18:46.573Z,2.20
2023-01-07T08:21:14.075Z,2.33
2023-01-07T08:23:41.545Z,1.67
2023-01-07T08:26:09.139Z,2.40
2023-01-07T08:28:37.942Z,2.25
2023-01-07T08:31:07.430Z,1.60
2023-01-07T08:33:37.795Z,2.22
2023-01-07T08:36:14.834Z,2.60
2023-01-07T08:38:55.631Z,1.52
2023-01-07T08:41:23.817Z,1.58
2023-01-07T08:43:53.133Z,1.27
2023-01-07T08:46:20.881Z,1.75
2023-01-07T08:48:48.523Z,2.40
2023-01-07T08:51:16.190Z,1.92
2023-01-07T08:53:43.747Z,2.55
2023-01-07T08:56:11.419Z,2.10
2023-01-07T08:58:39.277Z,1.83
2023-01-07T09:01:07.887Z,2.53
2023-01-07T09:03:35.692Z,2.13
2023-01-07T09:06:03.261Z,2.60
2023-01-07T09:08:31.045Z,2.25
2023-01-07T09:10:58.724Z,2.35
2023-01-07T09:13:26.163Z,2.88
2023-01-07T09:15:53.924Z,2.30
2023-01-07T09:18:21.784Z,1.80
2023-01-07T09:20:49.387Z,2.08
2023-01-07T09:23:16.940Z,2.28
2023-01-07T09:25:44.474Z,1.80
2023-01-07T09:28:12.044Z,2.25
2023-01-07T09:30:39.673Z,2.28
2023-01-07T09:33:07.291Z,1.67
2023-01-07T09:35:34.905Z,2.50
2023-01-07T09:38:02.411Z,2.30
2023-01-07T09:40:36.378Z,2.03
2023-01-07T09:43:21.548Z,2.28
2023-01-07T09:45:59.937Z,2.72
2023-01-07T09:48:42.172Z,2.78
2023-01-07T09:51:27.445Z,3.45
2023-01-07T09:54:01.788Z,3.35
2023-01-07T09:56:37.116Z,2.95
2023-01-07T09:59:06.558Z,2.58
2023-01-07T10:01:47.517Z,2.40
2023-01-07T10:04:39.837Z,3.13
2023-01-07T10:07:29.621Z,3.08
2023-01-07T10:10:26.375Z,3.40
2023-01-07T10:13:18.173Z,2.45
2023-01-07T10:15:51.687Z,3.60
2023-01-07T10:18:38.171Z,4.28
2023-01-07T10:23:49.540Z,2.63
2023-01-07T10:26:43.041Z,2.55
2023-01-07T10:29:17.249Z,2.17
2023-01-07T10:31:46.421Z,3.05
2023-01-07T10:34:18.341Z,2.28
2023-01-07T10:37:06.153Z,2.00
2023-01-07T10:39:49.168Z,1.80
2023-01-07T10:42:54.139Z,2.30
2023-01-07T10:45:30.667Z,1.85
2023-01-07T10:48:16.095Z,2.22
2023-01-07T10:51:05.323Z,2.72
2023-01-07T10:53:50.824Z,2.10
2023-01-07T10:56:27.311Z,1.60
2023-01-07T10:58:55.027Z,1.95
2023-01-07T11:01:29.229Z,2.22
2023-01-07T11:03:59.721Z,2.53
2023-01-07T11:06:43.420Z,2.53
2023-01-07T11:09:27.396Z,1.70
2023-01-07T11:11:57.991Z,2.08
2023-01-07T11:14:34.297Z,1.50
2023-01-07T11:17:26.147Z,1.52
2023-01-07T11:19:53.670Z,1.90
2023-01-07T11:22:27.077Z,1.55
2023-01-07T11:24:55.983Z,1.70
2023-01-07T11:27:29.259Z,1.27
2023-01-07T11:30:07.609Z,1.10
2023-01-07T11:32:40.651Z,1.88
2023-01-07T11:35:34.958Z,1.23
2023-01-07T11:38:02.476Z,1.42
2023-01-07T11:40:32.938Z,1.02
2023-01-07T11:43:03.471Z,1.10
2023-01-07T11:46:19.186Z,2.20
2023-01-07T11:48:39.589Z,1.55
2023-01-07T11:51:10.862Z,1.52
2023-01-07T11:53:46.198Z,2.00
2023-01-07T11:56:22.763Z,1.48
2023-01-07T11:58:52.987Z,1.80
2023-01-07T12:01:23.253Z,1.60
2023-01-07T12:03:53.893Z,1.88
2023-01-07T12:06:35.078Z,1.48
2023-01-07T12:09:15.220Z,1.60
2023-01-07T12:11:45.307Z,1.92
2023-01-07T12:14:18.401Z,1.63
2023-01-07T12:16:47.054Z,1.33
2023-01-07T12:19:23.335Z,2.03
2023-01-07T12:22:18.788Z,2.40
2023-01-07T12:25:26.460Z,3.00
2023-01-07T12:28:14.564Z,2.28
2023-01-07T12:30:44.029Z,1.67
2023-01-07T12:33:24.495Z,1.58
2023-01-07T12:35:53.363Z,1.40
2023-01-07T12:38:48.595Z,1.40
2023-01-07T12:41:30.647Z,1.00
2023-01-07T12:44:01.226Z,0.80
2023-01-07T12:46:51.813Z,1.40
2023-01-07T12:49:36.870Z,1.20
2023-01-07T12:52:16.745Z,0.95
2023-01-07T12:55:21.076Z,1.00
2023-01-07T12:58:11.770Z,0.88
2023-01-07T13:01:13.829Z,0.70
2023-01-07T13:03:47.559Z,1.50
2023-01-07T13:06:24.790Z,2.80
2023-01-07T13:09:03.956Z,2.25
2023-01-07T13:12:00.651Z,2.42
2023-01-07T13:14:39.272Z,2.10
2023-01-07T13:17:28.582Z,2.28
2023-01-07T13:19:56.517Z,2.33
2023-01-07T13:22:24.013Z,1.65
2023-01-07T13:25:39.491Z,1.65
2023-01-07T13:28:28.307Z,1.23
2023-01-07T13:31:34.206Z,1.00
2023-01-07T13:34:24.522Z,1.20
2023-01-07T13:37:26.951Z,1.00
2023-01-07T13:40:20.225Z,1.17
2023-01-07T13:43:18.541Z,1.30
2023-01-07T13:46:03.343Z,1.73
2023-01-07T13:48:31.210Z,1.88
2023-01-07T13:51:10.319Z,1.67
2023-01-07T13:53:39.955Z,2.08
2023-01-07T13:56:19.797Z,1.98
2023-01-07T13:58:58.126Z,1.40
2023-01-07T14:01:26.942Z,2.25
2023-01-07T14:03:55.416Z,1.98
2023-01-07T14:06:23.953Z,1.20
2023-01-07T14:08:56.232Z,1.83
2023-01-07T14:11:32.611Z,1.33
2023-01-07T14:14:38.389Z,1.70
2023-01-07T14:17:23.894Z,1.90
2023-01-07T14:20:20.003Z,1.80
2023-01-07T14:23:12.305Z,1.90
2023-01-07T14:25:57.986Z,1.90
2023-01-07T14:29:09.930Z,2.00
2023-01-07T14:31:37.661Z,1.88
2023-01-07T14:34:26.789Z,1.50
2023-01-07T14:37:06.513Z,1.98
2023-01-07T14:39:40.933Z,2.80
2023-01-07T14:42:20.338Z,1.73
2023-01-07T14:44:51.859Z,2.28
2023-01-07T14:47:41.288Z,1.42
2023-01-07T14:51:32.611Z,1.88
2023-01-07T14:55:37.348Z,1.67
2023-01-07T14:58:25.991Z,1.08
2023-01-07T15:01:07.327Z,1.15
2023-01-07T15:03:50.462Z,1.65
2023-01-07T15:06:28.887Z,1.65
2023-01-07T15:09:17.731Z,1.38
2023-01-07T15:12:05.518Z,2.10
2023-01-07T15:15:02.696Z,3.00
2023-01-07T15:17:31.004Z,1.48
2023-01-07T15:20:00.008Z,1.63
2023-01-07T15:22:37.284Z,2.28
2023-01-07T15:25:08.832Z,1.98
2023-01-07T15:27:45.100Z,1.75
2023-01-07T15:30:24.475Z,1.90
2023-01-07T15:32:57.724Z,1.80
2023-01-07T15:35:34.496Z,1.50
2023-01-07T15:38:26.131Z,1.40
2023-01-07T15:40:55.325Z,2.03
2023-01-07T15:43:27.111Z,2.47
2023-01-07T15:46:06.415Z,2.33
2023-01-07T15:48:34.143Z,2.35
2023-01-07T15:51:01.758Z,1.83
2023-01-07T15:53:30.353Z,2.30
2023-01-07T15:56:08.133Z,3.53
2023-01-07T15:58:47.528Z,3.35
2023-01-07T16:01:21.768Z,3.47
2023-01-07T16:03:51.544Z,3.47
2023-01-07T16:06:31.032Z,3.40
2023-01-07T16:08:59.712Z,3.35
2023-01-07T16:11:30.447Z,3.42
2023-01-07T16:14:04.261Z,3.17
2023-01-07T16:16:32.872Z,2.90
2023-01-07T16:19:02.479Z,2.47
2023-01-07T16:21:39.236Z,3.20
2023-01-07T16:24:07.351Z,2.63
2023-01-07T16:26:49.390Z,2.67
2023-01-07T16:29:24.140Z,2.60
2023-01-07T16:31:52.203Z,3.28
2023-01-07T16:34:25.885Z,3.28
2023-01-07T16:37:02.666Z,3.80
2023-01-07T16:39:42.320Z,2.22
2023-01-07T16:42:25.290Z,3.72
2023-01-07T16:44:55.546Z,2.72
2023-01-07T16:47:24.051Z,4.22
2023-01-07T16:49:53.613Z,3.10
2023-01-07T16:52:26.530Z,2.88
2023-01-07T16:54:54.205Z,3.58
2023-01-07T16:57:42.223Z,3.92
2023-01-07T17:00:18.696Z,2.72
2023-01-07T17:02:57.038Z,3.35
2023-01-07T17:05:27.199Z,3.03
2023-01-07T17:08:01.178Z,3.22
2023-01-07T17:10:35.058Z,2.90
2023-01-07T17:13:15.704Z,3.58
2023-01-07T17:15:43.931Z,3.83
2023-01-07T17:18:11.365Z,4.05
2023-01-07T17:21:00.523Z,3.80
2023-01-07T17:23:28.019Z,3.75
2023-01-07T17:26:04.738Z,3.65
2023-01-07T17:28:36.179Z,3.85
2023-01-07T17:31:05.805Z,3.47
2023-01-07T17:33:33.358Z,3.35
2023-01-07T17:36:00.937Z,2.88
2023-01-07T17:38:28.994Z,3.22
2023-01-07T17:40:56.504Z,3.28
2023-01-07T17:43:35.178Z,2.92
2023-01-07T17:46:05.116Z,3.20
2023-01-07T17:48:33.464Z,3.72
2023-01-07T17:51:01.496Z,3.15
2023-01-07T17:53:31.557Z,3.15
2023-01-07T17:56:01.659Z,3.95
2023-01-07T17:58:31.888Z,3.25
2023-01-07T18:01:01.835Z,4.53
2023-01-07T18:03:29.712Z,3.08
2023-01-07T18:05:57.511Z,3.55
2023-01-07T18:08:25.443Z,3.53
2023-01-07T18:11:13.131Z,3.38
2023-01-07T18:13:41.547Z,3.35
2023-01-07T18:16:16.391Z,3.65
2023-01-07T18:18:44.056Z,2.47
2023-01-07T18:21:12.371Z,3.92
2023-01-07T18:23:39.903Z,3.22
2023-01-07T18:26:07.877Z,3.10
2023-01-07T18:28:35.472Z,2.67
2023-01-07T18:31:02.976Z,2.30
2023-01-07T18:33:30.604Z,2.25
2023-01-07T18:35:58.205Z,2.72
2023-01-07T18:38:25.938Z,2.33
2023-01-07T18:40:55.176Z,3.00
2023-01-07T18:43:22.894Z,3.05
2023-01-07T18:45:50.620Z,3.13
2023-01-07T18:48:19.610Z,2.70
2023-01-07T18:50:49.858Z,2.80
2023-01-07T18:53:19.111Z,3.35
2023-01-07T18:55:46.773Z,3.20
2023-01-07T18:58:15.331Z,3.03
2023-01-07T19:00:43.386Z,3.22
2023-01-07T19:03:11.238Z,2.85
2023-01-07T19:05:41.076Z,2.80
2023-01-07T19:08:08.698Z,2.97
2023-01-07T19:10:41.399Z,2.78
2023-01-07T19:13:09.102Z,3.70
2023-01-07T19:15:38.055Z,3.05
2023-01-07T19:18:05.743Z,2.65
2023-01-07T19:20:33.677Z,3.42
2023-01-07T19:23:01.274Z,2.83
2023-01-07T19:25:30.442Z,3.78
2023-01-07T19:27:58.713Z,3.90
2023-01-07T19:30:26.382Z,2.88
2023-01-07T19:32:54.571Z,3.88
2023-01-07T19:35:22.022Z,3.00
2023-01-07T19:37:50.223Z,3.10
2023-01-07T19:40:17.952Z,3.38
2023-01-07T19:42:45.743Z,3.03
2023-01-07T19:45:13.217Z,3.15
2023-01-07T19:47:41.286Z,3.33
2023-01-07T19:50:09.243Z,2.78
2023-01-07T19:52:36.767Z,3.78
2023-01-07T19:55:04.572Z,3.35
2023-01-07T19:57:32.091Z,3.80
2023-01-07T19:59:59.601Z,3.72
2023-01-07T20:02:27.411Z,3.58
2023-01-07T20:04:55.009Z,3.88
2023-01-07T20:07:22.463Z,4.20
2023-01-07T20:09:49.916Z,4.07
2023-01-07T20:12:17.390Z,4.18
2023-01-07T20:14:45.108Z,3.15
2023-01-07T20:17:12.576Z,4.00
2023-01-07T20:19:40.121Z,3.83
2023-01-07T20:22:09.119Z,3.53
2023-01-07T20:24:36.784Z,3.72
2023-01-07T20:27:04.854Z,3.65
2023-01-07T20:29:32.406Z,3.83
2023-01-07T20:32:00.004Z,3.47
2023-01-07T20:34:27.526Z,3.75
2023-01-07T20:36:55.080Z,4.05
2023-01-07T20:39:22.741Z,3.97
2023-01-07T20:41:50.243Z,4.38
2023-01-07T20:44:17.769Z,3.40
2023-01-07T20:46:45.500Z,2.97
2023-01-07T20:49:13.407Z,3.78
2023-01-07T20:51:40.945Z,3.47
2023-01-07T20:54:08.554Z,3.33
2023-01-07T20:56:36.316Z,3.70
2023-01-07T20:59:04.097Z,4.18
2023-01-07T21:01:31.954Z,3.25
2023-01-07T21:04:01.510Z,3.20
2023-01-07T21:06:29.084Z,3.30
2023-01-07T21:08:56.676Z,3.35
2023-01-07T21:11:24.750Z,3.90
2023-01-07T21:13:56.055Z,3.50
2023-01-07T21:16:25.123Z,4.47
2023-01-07T21:18:52.654Z,3.13
2023-01-07T21:21:24.059Z,2.85
2023-01-07T21:23:53.543Z,3.53
2023-01-07T21:26:21.756Z,3.53
2023-01-07T21:28:51.862Z,3.80
2023-01-07T21:31:19.647Z,3.58
2023-01-07T21:33:47.194Z,3.55
2023-01-07T21:36:17.308Z,4.60
2023-01-07T21:38:46.302Z,3.60
2023-01-07T21:41:16.408Z,3.55
2023-01-07T21:43:44.746Z,3.55
2023-01-07T21:46:13.052Z,3.30
2023-01-07T21:48:42.916Z,2.80
2023-01-07T21:51:20.684Z,3.75
2023-01-07T21:53:48.309Z,3.92
2023-01-07T21:56:17.383Z,2.97
2023-01-07T21:58:49.194Z,3.42
2023-01-07T22:01:17.965Z,3.08
2023-01-07T22:03:47.990Z,3.58
2023-01-07T22:06:24.672Z,3.67
2023-01-07T22:09:00.020Z,4.50
2023-01-07T22:11:28.123Z,3.20
2023-01-07T22:13:58.195Z,2.80
2023-01-07T22:16:29.147Z,3.55
2023-01-07T22:18:57.726Z,3.85
2023-01-07T22:21:25.622Z,3.67
2023-01-07T22:23:53.287Z,3.67
2023-01-07T22:26:21.553Z,3.42
2023-01-07T22:28:54.751Z,3.45
2023-01-07T22:31:25.766Z,4.20
2023-01-07T22:33:54.223Z,3.50
2023-01-07T22:36:24.096Z,4.65
2023-01-07T22:38:52.880Z,3.63
2023-01-07T22:41:20.394Z,4.95
2023-01-07T22:43:48.034Z,4.18
2023-01-07T22:46:24.849Z,3.63
2023-01-07T22:48:52.989Z,4.07
2023-01-07T22:51:25.208Z,2.90
2023-01-07T22:53:55.117Z,3.67
2023-01-07T22:56:23.571Z,3.10
2023-01-07T22:58:51.286Z,3.67
2023-01-07T23:01:18.795Z,3.25
2023-01-07T23:03:46.557Z,4.05
2023-01-07T23:06:16.130Z,3.50
2023-01-07T23:08:44.385Z,3.15
2023-01-07T23:11:32.272Z,2.80
2023-01-07T23:13:59.977Z,2.70
2023-01-07T23:16:27.621Z,3.08
2023-01-07T23:18:55.363Z,3.05
2023-01-07T23:21:22.801Z,3.17
2023-01-07T23:23:50.254Z,3.90
2023-01-07T23:26:17.737Z,3.53
2023-01-07T23:28:45.254Z,3.50
2023-01-07T23:31:12.824Z,4.00
2023-01-07T23:33:40.448Z,2.90
2023-01-07T23:36:09.948Z,3.80
2023-01-07T23:38:37.708Z,3.92
2023-01-07T23:41:07.640Z,3.70
2023-01-07T23:43:35.605Z,4.05
2023-01-07T23:46:05.765Z,5.38
2023-01-07T23:48:35.093Z,4.47
2023-01-07T23:51:17.382Z,4.05
2023-01-07T23:53:45.699Z,4.20
2023-01-07T23:56:13.869Z,3.92
2023-01-07T23:58:41.339Z,4.30
